Time;durP1;ratioP1;P1;durP2;ratioP2;P2;SDS_P1;SDS_P2;PMS_P1;PMS_P2;Temp;Humidity;BMP_temperature;BMP_pressure;BME280_temperature;BME280_humidity;BME280_pressure;Samples;Min_cycle;Max_cycle;Signal;HPM_P1;HPM_P2
2022/09/24 00:00:08;;;;;;;;;;;;;;;;;;5102612;28;869;-71
2022/09/24 00:02:34;;;;;;;;;;;;;;;;;;5102673;28;1032;-72
2022/09/24 00:04:59;;;;;;;;;;;;;;;;;;5102487;28;853;-72
2022/09/24 00:07:24;;;;;;;;;;;;;;;;;;5102477;28;1258;-72
2022/09/24 00:09:49;;;;;;;;;;;;;;;;;;5102553;28;1894;-72
2022/09/24 00:12:15;;;;;;;;;;;;;;;;;;5102482;28;795;-72
2022/09/24 00:14:40;;;;;;;;;;;;;;;;;;5102344;28;954;-71
2022/09/24 00:17:05;;;;;;;;;;;;;;;;;;5102207;28;1195;-71
2022/09/24 00:19:30;;;;;;;;;;;;;;;;;;5087261;22;3749;-76
2022/09/24 00:21:55;;;;;;;;;;;;;;;;;;5061474;28;952;-76
2022/09/24 00:27:05;;;;;;;;;;;;;;;;;;5060540;28;681;-76
2022/09/24 00:29:34;;;;;;;;;;;;;;;;;;5061408;28;1247;-76
2022/09/24 00:32:00;;;;;;;;;;;;;;;;;;5061232;28;848;-76
2022/09/24 00:34:25;;;;;;;;;;;;;;;;;;5061165;28;779;-76
2022/09/24 00:36:51;;;;;;;;;;;;;;;;;;5060952;28;794;-76
2022/09/24 00:39:17;;;;;;;;;;;;;;;;;;5061213;28;1153;-76
2022/09/24 00:41:44;;;;;;;;;;;;;;;;;;5061096;28;810;-76
2022/09/24 00:44:28;;;;;;;;;;;;;;;;;;5061165;28;806;-76
2022/09/24 00:46:53;;;;;;;;;;;;;;;;;;5060695;28;934;-76
2022/09/24 00:49:19;;;;;;;;;;;;;;;;;;5061099;28;1157;-76
2022/09/24 00:51:45;;;;;;;;;;;;;;;;;;5061175;28;1897;-76
2022/09/24 00:54:17;;;;;;;;;;;;;;;;;;5061048;28;988;-76
2022/09/24 00:56:43;;;;;;;;;;;;;;;;;;5060729;28;874;-76
2022/09/24 00:59:10;;;;;;;;;;;;;;;;;;5060888;28;1148;-76
2022/09/24 01:01:35;;;;;;;;;;;;;;;;;;5060846;28;869;-76
2022/09/24 01:04:01;;;;;;;;;;;;;;;;;;5060783;28;772;-76
2022/09/24 01:06:27;;;;;;;;;;;;;;;;;;5060754;28;795;-76
2022/09/24 01:08:53;;;;;;;;;;;;;;;;;;5060615;28;1149;-76
2022/09/24 01:11:27;;;;;;;;;;;;;;;;;;5060756;28;1956;-76
2022/09/24 01:14:03;;;;;;;;;;;;;;;;;;5060592;28;862;-76
2022/09/24 01:16:48;;;;;;;;;;;;;;;;;;5060384;28;933;-76
2022/09/24 01:19:24;;;;;;;;;;;;;;;;;;5060392;28;1144;-76
2022/09/24 01:21:54;;;;;;;;;;;;;;;;;;5060621;28;1064;-76
2022/09/24 01:24:19;;;;;;;;;;;;;;;;;;5060630;28;878;-76
2022/09/24 01:26:44;;;;;;;;;;;;;;;;;;5060278;28;838;-76
2022/09/24 01:29:31;;;;;;;;;;;;;;;;;;5060355;28;1156;-76
2022/09/24 01:32:08;;;;;;;;;;;;;;;;;;5060509;28;1985;-76
2022/09/24 01:34:37;;;;;;;;;;;;;;;;;;5060137;28;997;-76
2022/09/24 01:37:03;;;;;;;;;;;;;;;;;;5060297;28;874;-76
2022/09/24 01:39:30;;;;;;;;;;;;;;;;;;5060330;28;1218;-76
2022/09/24 01:41:56;;;;;;;;;;;;;;;;;;5060408;28;906;-76
2022/09/24 01:44:21;;;;;;;;;;;;;;;;;;5060209;28;807;-76
2022/09/24 01:46:46;;;;;;;;;;;;;;;;;;5060080;28;889;-76
2022/09/24 01:49:11;;;;;;;;;;;;;;;;;;5060158;28;1214;-76
2022/09/24 01:51:43;;;;;;;;;;;;;;;;;;5060138;28;1898;-76
2022/09/24 01:54:14;;;;;;;;;;;;;;;;;;5060106;28;803;-76
2022/09/24 01:56:45;;;;;;;;;;;;;;;;;;5059950;28;976;-76
2022/09/24 01:59:17;;;;;;;;;;;;;;;;;;5063606;28;1267;-76
2022/09/24 02:02:03;;;;;;;;;;;;;;;;;;5063717;28;795;-76
2022/09/24 02:04:29;;;;;;;;;;;;;;;;;;5062920;28;1158;-76
2022/09/24 02:06:57;;;;;;;;;;;;;;;;;;5063624;28;1080;-76
2022/09/24 02:09:28;;;;;;;;;;;;;;;;;;5063432;28;1124;-76
2022/09/24 02:11:54;;;;;;;;;;;;;;;;;;5063426;28;1960;-76
2022/09/24 02:14:19;;;;;;;;;;;;;;;;;;5063275;28;981;-76
2022/09/24 02:16:48;;;;;;;;;;;;;;;;;;5063116;28;1005;-76
2022/09/24 02:19:16;;;;;;;;;;;;;;;;;;5063152;28;1144;-76
2022/09/24 02:21:42;;;;;;;;;;;;;;;;;;5063451;28;929;-76
2022/09/24 02:24:11;;;;;;;;;;;;;;;;;;5045278;28;977;-76
2022/09/24 02:26:37;;;;;;;;;;;;;;;;;;5063039;28;913;-76
2022/09/24 02:29:02;;;;;;;;;;;;;;;;;;5062944;28;1224;-76
2022/09/24 02:31:32;;;;;;;;;;;;;;;;;;5063428;28;1909;-76
2022/09/24 02:36:43;;;;;;;;;;;;;;;;;;5062976;28;778;-76
2022/09/24 02:39:08;;;;;;;;;;;;;;;;;;5063003;28;1236;-76
2022/09/24 02:41:34;;;;;;;;;;;;;;;;;;5062962;28;834;-76
2022/09/24 02:43:59;;;;;;;;;;;;;;;;;;5062961;28;838;-76
2022/09/24 02:46:24;;;;;;;;;;;;;;;;;;5062960;28;814;-76
2022/09/24 02:48:49;;;;;;;;;;;;;;;;;;5062860;28;1259;-76
2022/09/24 02:51:15;;;;;;;;;;;;;;;;;;5062748;28;1955;-76
2022/09/24 02:53:40;;;;;;;;;;;;;;;;;;5063028;28;834;-76
2022/09/24 02:56:06;;;;;;;;;;;;;;;;;;5062375;28;895;-76
2022/09/24 02:58:32;;;;;;;;;;;;;;;;;;5062775;28;1168;-76
2022/09/24 03:00:57;;;;;;;;;;;;;;;;;;5062658;28;1040;-76
2022/09/24 03:03:23;;;;;;;;;;;;;;;;;;5062777;28;934;-76
2022/09/24 03:05:48;;;;;;;;;;;;;;;;;;5062228;28;906;-76
2022/09/24 03:08:14;;;;;;;;;;;;;;;;;;5061850;28;1175;-76
2022/09/24 03:10:39;;;;;;;;;;;;;;;;;;5061769;28;1906;-76
2022/09/24 03:13:04;;;;;;;;;;;;;;;;;;5062447;28;749;-76
2022/09/24 03:15:29;;;;;;;;;;;;;;;;;;5062030;28;1036;-76
2022/09/24 03:17:54;;;;;;;;;;;;;;;;;;5062267;28;1222;-76
2022/09/24 03:20:20;;;;;;;;;;;;;;;;;;5062277;28;807;-76
2022/09/24 03:22:49;;;;;;;;;;;;;;;;;;5062447;28;1012;-76
2022/09/24 03:25:14;;;;;;;;;;;;;;;;;;5061981;28;807;-76
2022/09/24 03:27:39;;;;;;;;;;;;;;;;;;5044219;28;970;-76
2022/09/24 03:32:49;;;;;;;;;;;;;;;;;;5062308;28;656;-76
2022/09/24 03:35:14;;;;;;;;;;;;;;;;;;5061809;28;1021;-76
2022/09/24 03:37:41;;;;;;;;;;;;;;;;;;5062187;28;807;-76
2022/09/24 03:40:07;;;;;;;;;;;;;;;;;;5061946;28;937;-76
2022/09/24 03:42:33;;;;;;;;;;;;;;;;;;5062048;28;1337;-76
2022/09/24 03:44:58;;;;;;;;;;;;;;;;;;5061960;28;818;-76
2022/09/24 03:47:23;;;;;;;;;;;;;;;;;;5061742;28;930;-76
2022/09/24 03:49:49;;;;;;;;;;;;;;;;;;5061890;28;1886;-76
2022/09/24 03:52:14;;;;;;;;;;;;;;;;;;5062022;28;1098;-76
2022/09/24 03:54:39;;;;;;;;;;;;;;;;;;5061665;28;882;-76
2022/09/24 03:57:04;;;;;;;;;;;;;;;;;;5061676;28;861;-76
2022/09/24 03:59:29;;;;;;;;;;;;;;;;;;5061715;28;1253;-76
2022/09/24 04:01:54;;;;;;;;;;;;;;;;;;5061665;28;849;-76
2022/09/24 04:04:20;;;;;;;;;;;;;;;;;;5062042;28;858;-76
2022/09/24 04:06:45;;;;;;;;;;;;;;;;;;5061412;28;989;-76
2022/09/24 04:09:10;;;;;;;;;;;;;;;;;;5061716;28;1179;-76
2022/09/24 04:11:35;;;;;;;;;;;;;;;;;;5061508;28;1905;-75
2022/09/24 04:14:00;;;;;;;;;;;;;;;;;;5061735;28;807;-75
2022/09/24 04:16:26;;;;;;;;;;;;;;;;;;5061405;28;787;-75
2022/09/24 04:18:52;;;;;;;;;;;;;;;;;;5061453;28;1293;-75
2022/09/24 04:21:17;;;;;;;;;;;;;;;;;;5060952;28;825;-75
2022/09/24 04:23:42;;;;;;;;;;;;;;;;;;5043522;28;925;-75
2022/09/24 04:26:07;;;;;;;;;;;;;;;;;;5043218;28;902;-76
2022/09/24 04:28:33;;;;;;;;;;;;;;;;;;5061304;28;1184;-75
2022/09/24 04:30:58;;;;;;;;;;;;;;;;;;5061457;28;1977;-76
2022/09/24 04:33:23;;;;;;;;;;;;;;;;;;5061253;28;1035;-76
2022/09/24 04:35:49;;;;;;;;;;;;;;;;;;5061109;28;917;-76
2022/09/24 04:38:14;;;;;;;;;;;;;;;;;;5061001;28;1179;-76
2022/09/24 04:40:39;;;;;;;;;;;;;;;;;;5061406;28;820;-75
2022/09/24 04:43:05;;;;;;;;;;;;;;;;;;5061063;28;913;-75
2022/09/24 04:45:31;;;;;;;;;;;;;;;;;;5060971;28;755;-75
2022/09/24 04:47:56;;;;;;;;;;;;;;;;;;5060907;28;1172;-75
2022/09/24 04:50:22;;;;;;;;;;;;;;;;;;5061087;28;1965;-75
2022/09/24 04:52:47;;;;;;;;;;;;;;;;;;5043007;28;1595;-75
2022/09/24 04:55:12;;;;;;;;;;;;;;;;;;5060806;28;783;-75
2022/09/24 04:57:40;;;;;;;;;;;;;;;;;;5061114;28;824;-76
2022/09/24 05:00:07;;;;;;;;;;;;;;;;;;5060895;28;1148;-75
2022/09/24 05:02:32;;;;;;;;;;;;;;;;;;5060821;28;1098;-75
2022/09/24 05:04:57;;;;;;;;;;;;;;;;;;5060886;28;795;-75
2022/09/24 05:07:23;;;;;;;;;;;;;;;;;;5060612;28;945;-75
2022/09/24 05:09:48;;;;;;;;;;;;;;;;;;5060624;28;1901;-75
2022/09/24 05:12:13;;;;;;;;;;;;;;;;;;5060725;28;981;-75
2022/09/24 05:14:38;;;;;;;;;;;;;;;;;;5060646;28;917;-75
2022/09/24 05:17:04;;;;;;;;;;;;;;;;;;5060657;28;850;-75
2022/09/24 05:19:29;;;;;;;;;;;;;;;;;;5060469;28;1165;-75
2022/09/24 05:21:54;;;;;;;;;;;;;;;;;;5060824;28;783;-75
2022/09/24 05:24:20;;;;;;;;;;;;;;;;;;5060410;28;981;-75
2022/09/24 05:29:29;;;;;;;;;;;;;;;;;;5060571;28;1299;-75
2022/09/24 05:31:55;;;;;;;;;;;;;;;;;;5060778;28;1870;-75
2022/09/24 05:34:20;;;;;;;;;;;;;;;;;;5064148;28;858;-75
2022/09/24 05:36:45;;;;;;;;;;;;;;;;;;5064041;28;791;-75
2022/09/24 05:39:11;;;;;;;;;;;;;;;;;;5063953;28;1183;-76
2022/09/24 05:41:37;;;;;;;;;;;;;;;;;;5064085;28;881;-75
2022/09/24 05:44:03;;;;;;;;;;;;;;;;;;5063934;28;791;-75
2022/09/24 05:46:28;;;;;;;;;;;;;;;;;;5063727;28;882;-75
2022/09/24 05:48:53;;;;;;;;;;;;;;;;;;5063643;28;1247;-75
2022/09/24 05:51:18;;;;;;;;;;;;;;;;;;5063692;28;1953;-75
2022/09/24 05:53:43;;;;;;;;;;;;;;;;;;5063680;28;1033;-75
2022/09/24 05:56:09;;;;;;;;;;;;;;;;;;5063499;28;874;-76
2022/09/24 05:58:34;;;;;;;;;;;;;;;;;;5063475;28;1187;-75
2022/09/24 06:01:00;;;;;;;;;;;;;;;;;;5063723;28;827;-75
2022/09/24 06:03:26;;;;;;;;;;;;;;;;;;5063649;28;818;-75
2022/09/24 06:05:51;;;;;;;;;;;;;;;;;;5063245;28;862;-75
2022/09/24 06:08:17;;;;;;;;;;;;;;;;;;5063756;28;1236;-75
2022/09/24 06:10:44;;;;;;;;;;;;;;;;;;5063535;28;1890;-75
2022/09/24 06:13:10;;;;;;;;;;;;;;;;;;5063495;28;818;-75
2022/09/24 06:15:36;;;;;;;;;;;;;;;;;;5063438;28;826;-75
2022/09/24 06:20:36;;;;;;;;;;;;;;;;;;5081367;28;1291;-76
2022/09/24 06:23:01;;;;;;;;;;;;;;;;;;5083995;28;977;-76
2022/09/24 06:25:27;;;;;;;;;;;;;;;;;;5083644;28;881;-76
2022/09/24 06:27:59;;;;;;;;;;;;;;;;;;5083993;28;1000;-76
2022/09/24 06:30:24;;;;;;;;;;;;;;;;;;5083751;28;1945;-76
2022/09/24 06:32:49;;;;;;;;;;;;;;;;;;5083833;28;724;-76
2022/09/24 06:35:15;;;;;;;;;;;;;;;;;;5083403;28;957;-76
2022/09/24 06:37:40;;;;;;;;;;;;;;;;;;5083793;28;875;-76
2022/09/24 06:40:05;;;;;;;;;;;;;;;;;;5083831;28;1214;-76
2022/09/24 06:42:31;;;;;;;;;;;;;;;;;;5083700;28;1028;-76
2022/09/24 06:44:56;;;;;;;;;;;;;;;;;;5083108;28;841;-76
2022/09/24 06:47:22;;;;;;;;;;;;;;;;;;5083623;28;851;-76
2022/09/24 06:49:49;;;;;;;;;;;;;;;;;;5083361;28;1249;-76
2022/09/24 06:52:15;;;;;;;;;;;;;;;;;;5083511;28;857;-76
2022/09/24 06:54:40;;;;;;;;;;;;;;;;;;5083186;28;896;-76
2022/09/24 06:57:05;;;;;;;;;;;;;;;;;;5083479;28;811;-76
2022/09/24 06:59:30;;;;;;;;;;;;;;;;;;5065296;28;1191;-76
2022/09/24 07:01:55;;;;;;;;;;;;;;;;;;5083604;28;850;-76
2022/09/24 07:04:21;;;;;;;;;;;;;;;;;;5083184;28;1048;-76
2022/09/24 07:09:29;;;;;;;;;;;;;;;;;;5083093;28;1180;-76
2022/09/24 07:11:56;;;;;;;;;;;;;;;;;;5083078;28;1972;-76
2022/09/24 07:14:22;;;;;;;;;;;;;;;;;;5082828;28;893;-76
2022/09/24 07:16:47;;;;;;;;;;;;;;;;;;5083269;28;819;-76
2022/09/24 07:19:12;;;;;;;;;;;;;;;;;;5083058;28;1133;-77
2022/09/24 07:21:37;;;;;;;;;;;;;;;;;;5082905;28;1033;-77
2022/09/24 07:24:03;;;;;;;;;;;;;;;;;;5083049;28;783;-77
2022/09/24 07:26:28;;;;;;;;;;;;;;;;;;5082646;28;949;-77
2022/09/24 07:28:53;;;;;;;;;;;;;;;;;;5082854;28;1242;-76
2022/09/24 07:31:18;;;;;;;;;;;;;;;;;;5082376;28;1886;-77
2022/09/24 07:33:44;;;;;;;;;;;;;;;;;;5083112;28;827;-77
2022/09/24 07:36:09;;;;;;;;;;;;;;;;;;5082498;28;1024;-77
2022/09/24 07:38:35;;;;;;;;;;;;;;;;;;5082917;28;1235;-77
2022/09/24 07:41:00;;;;;;;;;;;;;;;;;;5082548;28;873;-78
2022/09/24 07:43:27;;;;;;;;;;;;;;;;;;5082824;28;740;-77
2022/09/24 07:45:54;;;;;;;;;;;;;;;;;;5082329;28;794;-77
2022/09/24 07:48:19;;;;;;;;;;;;;;;;;;5082794;28;1142;-76
2022/09/24 07:50:44;;;;;;;;;;;;;;;;;;5082252;28;1894;-77
2022/09/24 07:53:11;;;;;;;;;;;;;;;;;;5082363;28;886;-77
2022/09/24 07:55:39;;;;;;;;;;;;;;;;;;5081381;28;844;-77
2022/09/24 07:58:04;;;;;;;;;;;;;;;;;;5082428;28;1136;-76
2022/09/24 08:00:30;;;;;;;;;;;;;;;;;;5082336;28;782;-76
2022/09/24 08:02:55;;;;;;;;;;;;;;;;;;5082537;28;818;-76
2022/09/24 08:05:20;;;;;;;;;;;;;;;;;;5082153;28;842;-77
2022/09/24 08:07:55;;;;;;;;;;;;;;;;;;5082351;28;1067;-77
2022/09/24 08:10:21;;;;;;;;;;;;;;;;;;5082071;28;1888;-77
2022/09/24 08:12:46;;;;;;;;;;;;;;;;;;5082147;28;815;-76
2022/09/24 08:15:11;;;;;;;;;;;;;;;;;;5081902;28;1055;-76
2022/09/24 08:17:36;;;;;;;;;;;;;;;;;;5082110;28;1040;-76
2022/09/24 08:20:02;;;;;;;;;;;;;;;;;;5082160;28;1137;-76
2022/09/24 08:22:27;;;;;;;;;;;;;;;;;;5081904;28;845;-77
2022/09/24 08:24:53;;;;;;;;;;;;;;;;;;5081935;28;878;-77
2022/09/24 08:27:22;;;;;;;;;;;;;;;;;;5082100;28;902;-77
2022/09/24 08:29:47;;;;;;;;;;;;;;;;;;5081971;28;1152;-77
2022/09/24 08:32:12;;;;;;;;;;;;;;;;;;5081670;28;1897;-76
2022/09/24 08:34:39;;;;;;;;;;;;;;;;;;5063702;28;992;-77
2022/09/24 08:37:04;;;;;;;;;;;;;;;;;;5081856;28;880;-77
2022/09/24 08:39:29;;;;;;;;;;;;;;;;;;5081846;28;1239;-77
2022/09/24 08:41:56;;;;;;;;;;;;;;;;;;5081691;28;795;-77
2022/09/24 08:47:35;;;;;;;;;;;;;;;;;;5081998;28;742;-77
2022/09/24 08:50:19;;;;;;;;;;;;;;;;;;5068217;28;1886;-77
2022/09/24 08:52:54;;;;;;;;;;;;;;;;;;5081571;28;798;-77
2022/09/24 08:55:33;;;;;;;;;;;;;;;;;;5081461;28;964;-77
2022/09/24 08:58:01;;;;;;;;;;;;;;;;;;5081554;28;869;-77
2022/09/24 09:00:28;;;;;;;;;;;;;;;;;;5081503;28;815;-77
2022/09/24 09:03:16;;;;;;;;;;;;;;;;;;5081346;28;854;-76
2022/09/24 09:05:49;;;;;;;;;;;;;;;;;;5081269;28;988;-77
2022/09/24 09:08:22;;;;;;;;;;;;;;;;;;5081320;28;1245;-77
2022/09/24 09:10:48;;;;;;;;;;;;;;;;;;5081154;28;1897;-76
2022/09/24 09:13:17;;;;;;;;;;;;;;;;;;5081152;28;913;-77
2022/09/24 09:15:43;;;;;;;;;;;;;;;;;;5081077;28;981;-77
2022/09/24 09:18:22;;;;;;;;;;;;;;;;;;5081132;28;1242;-76
2022/09/24 09:20:48;;;;;;;;;;;;;;;;;;5081195;28;787;-76
2022/09/24 09:23:16;;;;;;;;;;;;;;;;;;5081125;28;1193;-76
2022/09/24 09:25:46;;;;;;;;;;;;;;;;;;5081065;28;862;-76
2022/09/24 09:28:14;;;;;;;;;;;;;;;;;;5081013;28;1164;-76
2022/09/24 09:30:59;;;;;;;;;;;;;;;;;;5080889;28;1898;-76
2022/09/24 09:33:36;;;;;;;;;;;;;;;;;;5052216;28;1143;-76
2022/09/24 09:36:10;;;;;;;;;;;;;;;;;;5062753;28;1151;-76
2022/09/24 09:38:44;;;;;;;;;;;;;;;;;;5080905;28;1309;-76
2022/09/24 09:41:28;;;;;;;;;;;;;;;;;;5080961;28;815;-76
2022/09/24 09:43:58;;;;;;;;;;;;;;;;;;5081138;28;889;-76
2022/09/24 09:46:26;;;;;;;;;;;;;;;;;;5080660;28;972;-78
2022/09/24 09:49:00;;;;;;;;;;;;;;;;;;5080745;28;1254;-77
2022/09/24 09:51:29;;;;;;;;;;;;;;;;;;5080758;28;1890;-77
2022/09/24 09:53:54;;;;;;;;;;;;;;;;;;5080842;28;1036;-77
2022/09/24 09:56:22;;;;;;;;;;;;;;;;;;5080689;28;770;-77
2022/09/24 09:58:51;;;;;;;;;;;;;;;;;;5080763;28;1259;-78
2022/09/24 10:01:17;;;;;;;;;;;;;;;;;;5080617;28;888;-78
2022/09/24 10:03:45;;;;;;;;;;;;;;;;;;5080672;28;791;-77
2022/09/24 10:06:11;;;;;;;;;;;;;;;;;;5080671;28;897;-77
2022/09/24 10:08:39;;;;;;;;;;;;;;;;;;5080607;28;1247;-78
2022/09/24 10:11:06;;;;;;;;;;;;;;;;;;5080462;28;1886;-77
2022/09/24 10:13:32;;;;;;;;;;;;;;;;;;5080540;28;811;-77
2022/09/24 10:16:02;;;;;;;;;;;;;;;;;;5080565;28;997;-77
2022/09/24 10:18:27;;;;;;;;;;;;;;;;;;5081428;28;1235;-77
2022/09/24 10:20:53;;;;;;;;;;;;;;;;;;5084032;28;1000;-77
2022/09/24 10:23:23;;;;;;;;;;;;;;;;;;5083931;28;857;-77
2022/09/24 10:25:50;;;;;;;;;;;;;;;;;;5083673;28;822;-77
2022/09/24 10:31:05;;;;;;;;;;;;;;;;;;5083969;28;2312;-77
2022/09/24 10:33:38;;;;;;;;;;;;;;;;;;5083701;28;1076;-77
2022/09/24 10:36:06;;;;;;;;;;;;;;;;;;5083592;28;881;-77
2022/09/24 10:38:31;;;;;;;;;;;;;;;;;;5083625;28;1253;-77
2022/09/24 10:40:57;;;;;;;;;;;;;;;;;;5065530;28;1402;-77
2022/09/24 10:43:22;;;;;;;;;;;;;;;;;;5084119;28;830;-78
2022/09/24 10:46:07;;;;;;;;;;;;;;;;;;5083374;28;977;-78
2022/09/24 10:48:35;;;;;;;;;;;;;;;;;;5083645;28;1199;-77
2022/09/24 10:51:10;;;;;;;;;;;;;;;;;;5083417;28;1955;-78
2022/09/24 10:53:43;;;;;;;;;;;;;;;;;;5083537;28;826;-78
2022/09/24 10:56:27;;;;;;;;;;;;;;;;;;5083376;28;853;-76
2022/09/24 10:59:12;;;;;;;;;;;;;;;;;;5083383;28;1162;-76
2022/09/24 11:01:43;;;;;;;;;;;;;;;;;;5083193;28;862;-76
2022/09/24 11:04:27;;;;;;;;;;;;;;;;;;5083509;28;786;-77
2022/09/24 11:07:11;;;;;;;;;;;;;;;;;;5083372;28;857;-77
2022/09/24 11:09:49;;;;;;;;;;;;;;;;;;5083029;28;1174;-76
2022/09/24 11:12:21;;;;;;;;;;;;;;;;;;5083027;28;1886;-76
2022/09/24 11:15:06;;;;;;;;;;;;;;;;;;5083101;28;873;-76
2022/09/24 11:17:33;;;;;;;;;;;;;;;;;;5083237;28;787;-76
2022/09/24 11:20:11;;;;;;;;;;;;;;;;;;5082861;28;1179;-76
2022/09/24 11:22:42;;;;;;;;;;;;;;;;;;5083191;28;850;-78
2022/09/24 11:25:23;;;;;;;;;;;;;;;;;;5082682;28;1056;-77
2022/09/24 11:27:48;;;;;;;;;;;;;;;;;;5083215;28;838;-77
2022/09/24 11:30:13;;;;;;;;;;;;;;;;;;5081464;28;1957;-76
2022/09/24 11:32:55;;;;;;;;;;;;;;;;;;5082954;28;921;-77
2022/09/24 11:35:26;;;;;;;;;;;;;;;;;;5082574;28;980;-77
2022/09/24 11:37:57;;;;;;;;;;;;;;;;;;5065040;28;905;-77
2022/09/24 11:40:28;;;;;;;;;;;;;;;;;;5082645;28;1278;-77
2022/09/24 11:43:17;;;;;;;;;;;;;;;;;;5082947;28;858;-77
2022/09/24 11:45:42;;;;;;;;;;;;;;;;;;5069162;28;1363;-77
2022/09/24 11:48:17;;;;;;;;;;;;;;;;;;5082650;28;1190;-77
2022/09/24 11:50:51;;;;;;;;;;;;;;;;;;5082464;28;1897;-78
2022/09/24 11:53:25;;;;;;;;;;;;;;;;;;5082650;28;973;-77
2022/09/24 11:55:57;;;;;;;;;;;;;;;;;;5082280;28;815;-77
2022/09/24 11:58:27;;;;;;;;;;;;;;;;;;5082415;28;1179;-77
2022/09/24 12:00:55;;;;;;;;;;;;;;;;;;5082362;28;893;-77
2022/09/24 12:03:25;;;;;;;;;;;;;;;;;;5082454;28;897;-76
2022/09/24 12:05:54;;;;;;;;;;;;;;;;;;5082276;28;916;-76
2022/09/24 12:08:26;;;;;;;;;;;;;;;;;;5082286;28;1270;-76
2022/09/24 12:10:55;;;;;;;;;;;;;;;;;;5082105;28;1902;-77
2022/09/24 12:13:27;;;;;;;;;;;;;;;;;;5082111;28;985;-78
2022/09/24 12:15:58;;;;;;;;;;;;;;;;;;5082103;28;853;-77
2022/09/24 12:18:26;;;;;;;;;;;;;;;;;;5063998;28;1404;-76
2022/09/24 12:20:58;;;;;;;;;;;;;;;;;;5104535;22;3668;-75
2022/09/24 12:23:26;;;;;;;;;;;;;;;;;;5102024;28;818;-75
2022/09/24 12:25:52;;;;;;;;;;;;;;;;;;5101355;28;817;-75
2022/09/24 12:32:53;;;;;;;;;;;;;;;;;;5101947;28;853;-75
2022/09/24 12:34:13;;;;;;;;;;;;;;;;;;5101342;28;1092;-75
2022/09/24 12:37:00;;;;;;;;;;;;;;;;;;5101373;28;906;-75
2022/09/24 12:39:29;;;;;;;;;;;;;;;;;;5101677;28;996;-75
2022/09/24 12:42:00;;;;;;;;;;;;;;;;;;5101178;28;842;-75
2022/09/24 12:44:30;;;;;;;;;;;;;;;;;;5101325;28;874;-75
2022/09/24 12:46:57;;;;;;;;;;;;;;;;;;5101462;28;993;-75
2022/09/24 12:49:25;;;;;;;;;;;;;;;;;;5101597;28;956;-75
2022/09/24 12:51:55;;;;;;;;;;;;;;;;;;5101318;28;1897;-75
2022/09/24 12:54:27;;;;;;;;;;;;;;;;;;5081442;28;1025;-75
2022/09/24 12:57:12;;;;;;;;;;;;;;;;;;5080803;28;826;-75
2022/09/24 12:59:49;;;;;;;;;;;;;;;;;;5080268;28;1172;-75
2022/09/24 13:02:16;;;;;;;;;;;;;;;;;;5080728;28;830;-75
2022/09/24 13:05:01;;;;;;;;;;;;;;;;;;5080742;28;889;-75
2022/09/24 13:07:29;;;;;;;;;;;;;;;;;;5080740;28;897;-75
2022/09/24 13:09:54;;;;;;;;;;;;;;;;;;5080747;28;1200;-75
2022/09/24 13:12:21;;;;;;;;;;;;;;;;;;5080565;28;2021;-75
2022/09/24 13:15:01;;;;;;;;;;;;;;;;;;5080529;28;839;-75
2022/09/24 13:17:26;;;;;;;;;;;;;;;;;;5080555;28;882;-75
2022/09/24 13:19:56;;;;;;;;;;;;;;;;;;5080567;28;1179;-75
2022/09/24 13:22:28;;;;;;;;;;;;;;;;;;5080698;28;901;-75
2022/09/24 13:25:06;;;;;;;;;;;;;;;;;;5080492;28;834;-75
2022/09/24 13:27:31;;;;;;;;;;;;;;;;;;5080487;28;835;-75
2022/09/24 13:30:19;;;;;;;;;;;;;;;;;;5080515;28;1278;-75
2022/09/24 13:32:48;;;;;;;;;;;;;;;;;;5069425;28;1736;-75
2022/09/24 13:35:16;;;;;;;;;;;;;;;;;;5080448;28;783;-75
2022/09/24 13:37:46;;;;;;;;;;;;;;;;;;5080400;28;980;-75
2022/09/24 13:40:16;;;;;;;;;;;;;;;;;;5080279;28;1215;-75
2022/09/24 13:42:49;;;;;;;;;;;;;;;;;;5062137;28;1325;-75
2022/09/24 13:45:19;;;;;;;;;;;;;;;;;;5080145;28;786;-75
2022/09/24 13:47:47;;;;;;;;;;;;;;;;;;5062278;28;814;-74
2022/09/24 13:50:16;;;;;;;;;;;;;;;;;;5080425;28;1963;-74
2022/09/24 13:52:47;;;;;;;;;;;;;;;;;;5080277;28;826;-74
2022/09/24 13:55:18;;;;;;;;;;;;;;;;;;5083863;28;802;-75
2022/09/24 13:57:44;;;;;;;;;;;;;;;;;;5083806;28;842;-75
2022/09/24 14:00:20;;;;;;;;;;;;;;;;;;5083746;28;1266;-75
2022/09/24 14:03:05;;;;;;;;;;;;;;;;;;5083700;28;826;-75
2022/09/24 14:05:35;;;;;;;;;;;;;;;;;;5068985;28;1465;-75
2022/09/24 14:08:20;;;;;;;;;;;;;;;;;;5083670;28;881;-75
2022/09/24 14:10:49;;;;;;;;;;;;;;;;;;5083235;28;1890;-74
2022/09/24 14:13:22;;;;;;;;;;;;;;;;;;5065448;28;1278;-74
2022/09/24 14:15:50;;;;;;;;;;;;;;;;;;5083270;28;901;-75
2022/09/24 14:18:15;;;;;;;;;;;;;;;;;;5083394;28;783;-74
2022/09/24 14:20:40;;;;;;;;;;;;;;;;;;5083222;28;1132;-75
2022/09/24 14:23:08;;;;;;;;;;;;;;;;;;5083311;28;818;-74
2022/09/24 14:25:35;;;;;;;;;;;;;;;;;;5083222;28;1032;-74
2022/09/24 14:28:01;;;;;;;;;;;;;;;;;;5083254;28;775;-74
2022/09/24 14:30:28;;;;;;;;;;;;;;;;;;5083712;28;1918;-74
2022/09/24 14:32:58;;;;;;;;;;;;;;;;;;5083239;28;934;-75
2022/09/24 14:35:29;;;;;;;;;;;;;;;;;;5083041;28;989;-75
2022/09/24 14:37:57;;;;;;;;;;;;;;;;;;5083396;28;1013;-75
2022/09/24 14:40:23;;;;;;;;;;;;;;;;;;5083276;28;1152;-74
2022/09/24 14:42:53;;;;;;;;;;;;;;;;;;5083141;28;964;-74
2022/09/24 14:45:36;;;;;;;;;;;;;;;;;;5082674;28;1077;-74
2022/09/24 14:48:03;;;;;;;;;;;;;;;;;;5083388;28;823;-74
2022/09/24 14:50:28;;;;;;;;;;;;;;;;;;5082823;28;1894;-74
2022/09/24 14:52:55;;;;;;;;;;;;;;;;;;5083023;28;849;-74
2022/09/24 14:55:21;;;;;;;;;;;;;;;;;;5082743;28;819;-74
2022/09/24 14:57:47;;;;;;;;;;;;;;;;;;5083020;28;802;-74
2022/09/24 15:00:22;;;;;;;;;;;;;;;;;;5082637;28;1207;-74
2022/09/24 15:02:49;;;;;;;;;;;;;;;;;;5082946;28;850;-74
2022/09/24 15:05:15;;;;;;;;;;;;;;;;;;5082245;28;858;-74
2022/09/24 15:07:40;;;;;;;;;;;;;;;;;;5082941;28;918;-74
2022/09/24 15:10:05;;;;;;;;;;;;;;;;;;5082568;28;1168;-74
2022/09/24 15:12:31;;;;;;;;;;;;;;;;;;5082955;28;1890;-75
2022/09/24 15:15:01;;;;;;;;;;;;;;;;;;5082413;28;873;-74
2022/09/24 15:17:31;;;;;;;;;;;;;;;;;;5083086;28;870;-74
2022/09/24 15:19:57;;;;;;;;;;;;;;;;;;5082806;28;1175;-75
2022/09/24 15:22:25;;;;;;;;;;;;;;;;;;5083068;28;850;-75
2022/09/24 15:24:51;;;;;;;;;;;;;;;;;;5064388;28;1511;-75
2022/09/24 15:27:25;;;;;;;;;;;;;;;;;;5082434;28;945;-75
2022/09/24 15:29:52;;;;;;;;;;;;;;;;;;5082482;28;1255;-75
2022/09/24 15:32:18;;;;;;;;;;;;;;;;;;5082576;28;1909;-75
2022/09/24 15:34:44;;;;;;;;;;;;;;;;;;5082133;28;865;-75
2022/09/24 15:37:14;;;;;;;;;;;;;;;;;;5082475;28;893;-75
2022/09/24 15:39:47;;;;;;;;;;;;;;;;;;5082263;28;1183;-74
2022/09/24 15:42:12;;;;;;;;;;;;;;;;;;5064428;28;1333;-75
2022/09/24 15:44:38;;;;;;;;;;;;;;;;;;5081754;28;1116;-75
2022/09/24 15:47:03;;;;;;;;;;;;;;;;;;5082370;28;768;-75
2022/09/24 15:49:29;;;;;;;;;;;;;;;;;;5082238;28;1227;-75
2022/09/24 15:51:55;;;;;;;;;;;;;;;;;;5081852;28;1889;-75
2022/09/24 15:54:21;;;;;;;;;;;;;;;;;;5081849;28;996;-75
2022/09/24 15:56:51;;;;;;;;;;;;;;;;;;5081631;28;834;-75
2022/09/24 15:59:16;;;;;;;;;;;;;;;;;;5063953;28;1309;-75
2022/09/24 16:01:41;;;;;;;;;;;;;;;;;;5081749;28;1271;-75
2022/09/24 16:04:08;;;;;;;;;;;;;;;;;;5081637;28;878;-75
2022/09/24 16:06:33;;;;;;;;;;;;;;;;;;5081808;28;989;-74
2022/09/24 16:08:58;;;;;;;;;;;;;;;;;;5081847;28;744;-75
2022/09/24 16:11:24;;;;;;;;;;;;;;;;;;5081640;28;1881;-74
2022/09/24 16:13:49;;;;;;;;;;;;;;;;;;5081679;28;922;-74
2022/09/24 16:16:14;;;;;;;;;;;;;;;;;;5080673;28;822;-74
2022/09/24 16:18:39;;;;;;;;;;;;;;;;;;5089812;28;843;-75
2022/09/24 16:21:05;;;;;;;;;;;;;;;;;;5085573;28;1242;-74
2022/09/24 16:23:31;;;;;;;;;;;;;;;;;;5081365;28;815;-74
2022/09/24 16:25:57;;;;;;;;;;;;;;;;;;5081015;28;1056;-74
2022/09/24 16:28:22;;;;;;;;;;;;;;;;;;5081493;28;819;-74
2022/09/24 16:30:48;;;;;;;;;;;;;;;;;;5081187;28;1894;-74
2022/09/24 16:33:13;;;;;;;;;;;;;;;;;;5081415;28;799;-74
2022/09/24 16:35:38;;;;;;;;;;;;;;;;;;5080983;28;794;-74
2022/09/24 16:38:03;;;;;;;;;;;;;;;;;;5081202;28;1036;-75
2022/09/24 16:40:28;;;;;;;;;;;;;;;;;;5081022;28;1231;-74
2022/09/24 16:42:54;;;;;;;;;;;;;;;;;;5080997;28;1041;-74
2022/09/24 16:45:19;;;;;;;;;;;;;;;;;;5080781;28;878;-74
2022/09/24 16:47:44;;;;;;;;;;;;;;;;;;5081007;28;882;-74
2022/09/24 16:50:09;;;;;;;;;;;;;;;;;;5081042;28;1250;-74
2022/09/24 16:52:34;;;;;;;;;;;;;;;;;;5080852;28;1902;-74
2022/09/24 16:54:59;;;;;;;;;;;;;;;;;;5080623;28;791;-74
2022/09/24 16:57:25;;;;;;;;;;;;;;;;;;5081065;28;803;-74
2022/09/24 16:59:50;;;;;;;;;;;;;;;;;;5081349;28;1259;-74
2022/09/24 17:02:16;;;;;;;;;;;;;;;;;;5081547;28;897;-74
2022/09/24 17:04:42;;;;;;;;;;;;;;;;;;5080993;28;854;-75
2022/09/24 17:07:09;;;;;;;;;;;;;;;;;;5062963;28;1440;-75
2022/09/24 17:12:18;;;;;;;;;;;;;;;;;;5081104;28;1898;-75
2022/09/24 17:14:43;;;;;;;;;;;;;;;;;;5080642;28;818;-75
2022/09/24 17:17:08;;;;;;;;;;;;;;;;;;5080679;28;929;-75
2022/09/24 17:19:33;;;;;;;;;;;;;;;;;;5080703;28;1270;-75
2022/09/24 17:21:59;;;;;;;;;;;;;;;;;;5080476;28;903;-75
2022/09/24 17:24:24;;;;;;;;;;;;;;;;;;5080613;28;794;-75
2022/09/24 17:26:49;;;;;;;;;;;;;;;;;;5080544;28;866;-75
2022/09/24 17:29:17;;;;;;;;;;;;;;;;;;5079495;28;989;-75
2022/09/24 17:31:42;;;;;;;;;;;;;;;;;;5080355;28;1976;-75
2022/09/24 17:34:11;;;;;;;;;;;;;;;;;;5080525;28;882;-75
2022/09/24 17:36:36;;;;;;;;;;;;;;;;;;5080202;28;853;-75
2022/09/24 17:39:02;;;;;;;;;;;;;;;;;;5080355;28;910;-74
2022/09/24 17:41:28;;;;;;;;;;;;;;;;;;5080403;28;1254;-75
2022/09/24 17:43:57;;;;;;;;;;;;;;;;;;5080331;28;798;-75
2022/09/24 17:46:22;;;;;;;;;;;;;;;;;;5080197;28;873;-75